createdAt,value
2022-11-21T00:01:19.609Z,1.00
2022-11-21T00:03:48.864Z,0.70
2022-11-21T00:06:16.802Z,0.90
2022-11-21T00:08:44.739Z,0.68
2022-11-21T00:11:12.556Z,0.77
2022-11-21T00:13:40.680Z,0.70
2022-11-21T00:16:10.431Z,0.63
2022-11-21T00:18:38.154Z,0.50
2022-11-21T00:21:08.723Z,0.60
2022-11-21T00:23:36.438Z,0.70
2022-11-21T00:26:07.669Z,0.50
2022-11-21T00:28:35.595Z,0.52
2022-11-21T00:31:04.250Z,0.80
2022-11-21T00:33:32.195Z,0.68
2022-11-21T00:35:59.857Z,0.82
2022-11-21T00:38:29.732Z,0.50
2022-11-21T00:40:57.339Z,0.50
2022-11-21T00:43:25.012Z,0.57
2022-11-21T00:46:05.945Z,0.60
2022-11-21T00:48:34.499Z,0.65
2022-11-21T00:51:02.212Z,0.70
2022-11-21T00:53:31.209Z,0.47
2022-11-21T00:55:59.356Z,0.68
2022-11-21T00:58:27.036Z,0.70
2022-11-21T01:01:03.489Z,0.70
2022-11-21T01:03:33.623Z,1.25
2022-11-21T01:06:02.836Z,1.73
2022-11-21T01:08:32.171Z,1.20
2022-11-21T01:11:03.955Z,1.20
2022-11-21T01:13:31.679Z,1.50
2022-11-21T01:16:04.217Z,1.75
2022-11-21T01:18:31.848Z,1.77
2022-11-21T01:21:00.774Z,2.30
2022-11-21T01:23:29.007Z,0.85
2022-11-21T01:26:02.454Z,1.17
2022-11-21T01:28:30.115Z,0.70
2022-11-21T01:31:04.413Z,1.13
2022-11-21T01:33:32.570Z,1.35
2022-11-21T01:36:07.385Z,1.77
2022-11-21T01:38:35.084Z,1.00
2022-11-21T01:41:04.135Z,1.17
2022-11-21T01:43:31.829Z,1.30
2022-11-21T01:46:01.829Z,1.20
2022-11-21T01:48:36.189Z,3.33
2022-11-21T01:51:10.465Z,0.80
2022-11-21T01:53:40.056Z,1.00
2022-11-21T01:56:10.084Z,1.20
2022-11-21T01:58:39.897Z,1.35
2022-11-21T02:01:07.819Z,1.15
2022-11-21T02:03:38.970Z,0.90
2022-11-21T02:06:08.458Z,1.00
2022-11-21T02:08:36.857Z,1.35
2022-11-21T02:11:13.205Z,0.80
2022-11-21T02:13:40.874Z,1.10
2022-11-21T02:16:09.401Z,1.00
2022-11-21T02:18:37.195Z,0.93
2022-11-21T02:21:14.481Z,1.20
2022-11-21T02:23:50.349Z,1.65
2022-11-21T02:26:19.637Z,1.10
2022-11-21T02:28:47.369Z,0.70
2022-11-21T02:31:15.187Z,0.73
2022-11-21T02:33:42.860Z,0.80
2022-11-21T02:36:40.468Z,0.95
2022-11-21T02:39:08.887Z,0.70
2022-11-21T02:41:42.459Z,0.70
2022-11-21T02:44:17.853Z,0.93
2022-11-21T02:46:49.742Z,0.90
2022-11-21T02:49:23.188Z,0.90
2022-11-21T02:51:50.900Z,0.90
2022-11-21T02:54:18.552Z,1.30
2022-11-21T02:56:47.534Z,0.90
2022-11-21T02:59:15.187Z,0.80
2022-11-21T03:01:42.877Z,0.90
2022-11-21T03:04:10.503Z,0.85
2022-11-21T03:06:38.240Z,0.60
2022-11-21T03:09:05.974Z,0.80
2022-11-21T03:11:33.675Z,0.98
2022-11-21T03:14:02.682Z,0.80
2022-11-21T03:16:30.286Z,0.70
2022-11-21T03:18:58.051Z,0.70
2022-11-21T03:21:25.699Z,0.80
2022-11-21T03:23:53.342Z,0.65
2022-11-21T03:26:20.986Z,0.80
2022-11-21T03:28:48.683Z,0.90
2022-11-21T03:31:17.698Z,0.75
2022-11-21T03:33:45.408Z,0.70
2022-11-21T03:36:13.075Z,0.60
2022-11-21T03:38:41.060Z,0.70
2022-11-21T03:41:28.698Z,0.88
2022-11-21T03:43:56.390Z,1.65
2022-11-21T03:46:25.494Z,1.45
2022-11-21T03:48:53.221Z,1.65
2022-11-21T03:51:21.393Z,1.80
2022-11-21T03:53:49.386Z,1.50
2022-11-21T03:56:17.749Z,2.03
2022-11-21T03:58:45.760Z,1.55
2022-11-21T04:01:14.144Z,1.10
2022-11-21T04:03:44.298Z,1.35
2022-11-21T04:06:13.227Z,1.10
2022-11-21T04:08:41.227Z,1.00
2022-11-21T04:11:09.289Z,0.60
2022-11-21T04:13:37.023Z,0.75
2022-11-21T04:16:04.888Z,0.80
2022-11-21T04:18:32.848Z,1.00
2022-11-21T04:21:03.729Z,1.10
2022-11-21T04:23:31.395Z,0.77
2022-11-21T04:25:59.547Z,0.70
2022-11-21T04:28:27.244Z,0.70
2022-11-21T04:30:55.248Z,0.88
2022-11-21T04:33:23.377Z,0.70
2022-11-21T04:35:51.037Z,1.00
2022-11-21T04:38:20.026Z,0.90
2022-11-21T04:40:47.717Z,0.73
2022-11-21T04:43:15.517Z,0.75
2022-11-21T04:45:44.559Z,0.80
2022-11-21T04:48:12.328Z,0.90
2022-11-21T04:50:39.968Z,0.85
2022-11-21T04:53:07.634Z,0.80
2022-11-21T04:55:36.698Z,0.80
2022-11-21T04:58:04.688Z,0.80
2022-11-21T05:00:32.392Z,0.70
2022-11-21T05:03:03.921Z,0.70
2022-11-21T05:05:31.779Z,0.80
2022-11-21T05:07:59.601Z,0.90
2022-11-21T05:10:27.251Z,0.65
2022-11-21T05:13:18.001Z,0.90
2022-11-21T05:15:46.443Z,0.88
2022-11-21T05:18:14.365Z,0.90
2022-11-21T05:20:42.253Z,0.80
2022-11-21T05:23:09.948Z,0.90
2022-11-21T05:25:37.757Z,1.00
2022-11-21T05:28:06.857Z,0.82
2022-11-21T05:30:34.538Z,1.00
2022-11-21T05:33:02.148Z,1.00
2022-11-21T05:35:29.819Z,4.30
2022-11-21T05:37:58.122Z,6.90
2022-11-21T05:40:26.390Z,2.10
2022-11-21T05:43:11.743Z,1.40
2022-11-21T05:45:40.780Z,1.25
2022-11-21T05:48:08.762Z,1.15
2022-11-21T05:50:37.060Z,1.50
2022-11-21T05:53:05.517Z,1.00
2022-11-21T05:55:35.568Z,1.52
2022-11-21T05:58:03.383Z,1.20
2022-11-21T06:00:31.356Z,1.75
2022-11-21T06:03:18.001Z,2.15
2022-11-21T06:05:45.753Z,1.63
2022-11-21T06:08:13.480Z,1.60
2022-11-21T06:10:41.287Z,1.10
2022-11-21T06:13:21.936Z,1.80
2022-11-21T06:15:56.873Z,1.45
2022-11-21T06:18:26.355Z,1.55
2022-11-21T06:20:54.257Z,2.50
2022-11-21T06:23:21.903Z,1.65
2022-11-21T06:25:56.809Z,1.55
2022-11-21T06:28:24.474Z,2.15
2022-11-21T06:30:52.513Z,1.92
2022-11-21T06:33:20.665Z,1.65
2022-11-21T06:35:49.721Z,1.63
2022-11-21T06:38:18.811Z,1.60
2022-11-21T06:40:46.739Z,1.95
2022-11-21T06:43:14.439Z,3.17
2022-11-21T06:45:42.135Z,2.58
2022-11-21T06:48:09.869Z,3.00
2022-11-21T06:50:38.692Z,2.78
2022-11-21T06:53:08.038Z,3.55
2022-11-21T06:55:35.781Z,2.70
2022-11-21T06:58:03.471Z,2.85
2022-11-21T07:00:31.234Z,2.75
2022-11-21T07:03:03.184Z,2.55
2022-11-21T07:05:31.287Z,3.05
2022-11-21T07:08:00.350Z,2.97
2022-11-21T07:10:30.650Z,3.90
2022-11-21T07:13:16.360Z,1.58
2022-11-21T07:15:44.295Z,1.77
2022-11-21T07:18:12.019Z,1.90
2022-11-21T07:20:39.803Z,1.40
2022-11-21T07:23:07.942Z,1.52
2022-11-21T07:25:37.167Z,1.63
2022-11-21T07:28:05.719Z,1.90
2022-11-21T07:30:33.489Z,1.83
2022-11-21T07:33:02.751Z,1.88
2022-11-21T07:35:30.792Z,1.60
2022-11-21T07:37:58.529Z,1.70
2022-11-21T07:40:26.693Z,2.00
2022-11-21T07:42:56.074Z,1.58
2022-11-21T07:45:23.893Z,1.95
2022-11-21T07:47:59.263Z,1.60
2022-11-21T07:50:27.713Z,2.08
2022-11-21T07:52:58.508Z,1.80
2022-11-21T07:55:26.580Z,1.67
2022-11-21T07:58:03.310Z,1.80
2022-11-21T08:00:32.279Z,1.90
2022-11-21T08:02:59.955Z,1.80
2022-11-21T08:05:27.899Z,1.83
2022-11-21T08:07:55.682Z,1.38
2022-11-21T08:10:23.322Z,2.38
2022-11-21T08:12:51.048Z,1.75
2022-11-21T08:15:20.078Z,2.03
2022-11-21T08:17:48.015Z,1.90
2022-11-21T08:20:15.810Z,1.65
2022-11-21T08:22:43.746Z,2.00
2022-11-21T08:25:12.158Z,1.95
2022-11-21T08:27:40.587Z,1.77
2022-11-21T08:30:10.405Z,1.90
2022-11-21T08:32:39.669Z,1.85
2022-11-21T08:35:08.384Z,2.08
2022-11-21T08:37:36.008Z,1.88
2022-11-21T08:40:03.719Z,2.22
2022-11-21T08:42:31.397Z,2.15
2022-11-21T08:44:59.046Z,1.63
2022-11-21T08:47:27.117Z,2.45
2022-11-21T08:49:56.067Z,1.70
2022-11-21T08:52:24.142Z,1.60
2022-11-21T08:54:51.996Z,1.88
2022-11-21T08:57:19.743Z,1.67
2022-11-21T08:59:47.475Z,1.50
2022-11-21T09:02:15.106Z,1.88
2022-11-21T09:04:42.725Z,1.40
2022-11-21T09:07:11.813Z,1.45
2022-11-21T09:09:39.670Z,1.30
2022-11-21T09:12:07.798Z,1.50
2022-11-21T09:14:52.974Z,1.95
2022-11-21T09:17:38.336Z,1.63
2022-11-21T09:20:07.063Z,1.50
2022-11-21T09:22:36.294Z,2.20
2022-11-21T09:25:04.514Z,2.53
2022-11-21T09:27:32.811Z,2.45
2022-11-21T09:30:00.725Z,2.97
2022-11-21T09:32:28.419Z,2.90
2022-11-21T09:34:56.239Z,2.83
2022-11-21T09:37:24.228Z,2.80
2022-11-21T09:39:53.332Z,2.67
2022-11-21T09:42:52.102Z,2.60
2022-11-21T09:45:24.995Z,1.63
2022-11-21T09:47:53.829Z,1.58
2022-11-21T09:50:30.628Z,1.48
2022-11-21T09:53:04.232Z,2.40
2022-11-21T09:55:42.597Z,2.55
2022-11-21T09:58:21.609Z,2.22
2022-11-21T10:00:52.859Z,1.40
2022-11-21T10:03:23.131Z,1.40
2022-11-21T10:05:55.331Z,1.45
2022-11-21T10:08:31.195Z,2.27
2022-11-21T10:11:19.426Z,1.80
2022-11-21T10:14:11.100Z,1.80
2022-11-21T10:16:45.787Z,2.25
2022-11-21T10:19:44.126Z,1.75
2022-11-21T10:22:32.710Z,1.88
2022-11-21T10:25:12.471Z,1.40
2022-11-21T10:27:48.741Z,2.00
2022-11-21T10:30:18.340Z,2.95
2022-11-21T10:32:48.831Z,1.55
2022-11-21T10:35:19.116Z,1.90
2022-11-21T10:37:51.291Z,2.60
2022-11-21T10:40:33.331Z,3.05
2022-11-21T10:43:27.387Z,2.03
2022-11-21T10:45:54.780Z,1.33
2022-11-21T10:48:22.506Z,1.87
2022-11-21T10:51:05.401Z,1.13
2022-11-21T10:53:51.098Z,2.13
2022-11-21T10:56:21.046Z,2.50
2022-11-21T10:58:51.643Z,2.63
2022-11-21T11:01:24.848Z,2.60
2022-11-21T11:04:41.562Z,2.17
2022-11-21T11:07:22.902Z,2.07
2022-11-21T11:09:52.333Z,2.00
2022-11-21T11:12:50.793Z,1.50
2022-11-21T11:15:24.914Z,3.25
2022-11-21T11:17:56.031Z,1.63
2022-11-21T11:20:34.670Z,1.20
2022-11-21T11:23:17.318Z,1.52
2022-11-21T11:25:48.172Z,1.50
2022-11-21T11:28:15.896Z,1.40
2022-11-21T11:30:45.137Z,1.20
2022-11-21T11:33:51.089Z,1.40
2022-11-21T11:36:32.156Z,2.50
2022-11-21T11:39:01.048Z,1.60
2022-11-21T11:42:10.284Z,1.67
2022-11-21T11:45:11.402Z,1.20
2022-11-21T11:47:54.429Z,2.20
2022-11-21T11:50:26.021Z,2.20
2022-11-21T11:53:00.668Z,1.65
2022-11-21T11:55:35.396Z,2.60
2022-11-21T11:58:07.333Z,1.70
2022-11-21T12:00:42.466Z,1.27
2022-11-21T12:03:16.711Z,1.60
2022-11-21T12:05:54.239Z,1.52
2022-11-21T12:08:43.498Z,1.63
2022-11-21T12:11:47.367Z,1.50
2022-11-21T12:14:49.012Z,1.80
2022-11-21T12:17:20.684Z,1.35
2022-11-21T12:19:51.858Z,1.50
2022-11-21T12:22:19.782Z,1.75
2022-11-21T12:24:48.088Z,1.50
2022-11-21T12:27:28.330Z,1.40
2022-11-21T12:30:10.207Z,1.80
2022-11-21T12:32:57.065Z,1.90
2022-11-21T12:35:45.480Z,1.50
2022-11-21T12:38:28.039Z,1.27
2022-11-21T12:41:32.166Z,1.50
2022-11-21T12:44:12.078Z,1.10
2022-11-21T12:46:51.565Z,1.45
2022-11-21T12:49:50.530Z,1.33
2022-11-21T12:52:43.244Z,1.70
2022-11-21T12:55:22.688Z,1.38
2022-11-21T12:58:15.883Z,1.38
2022-11-21T13:01:21.805Z,1.58
2022-11-21T13:03:57.364Z,1.48
2022-11-21T13:06:28.990Z,2.33
2022-11-21T13:09:02.448Z,1.73
2022-11-21T13:11:58.323Z,1.80
2022-11-21T13:14:30.947Z,1.65
2022-11-21T13:17:19.639Z,1.48
2022-11-21T13:19:55.685Z,1.17
2022-11-21T13:22:52.639Z,2.38
2022-11-21T13:25:41.928Z,1.30
2022-11-21T13:28:32.681Z,1.25
2022-11-21T13:31:02.680Z,1.20
2022-11-21T13:33:48.454Z,1.48
2022-11-21T13:36:41.934Z,1.70
2022-11-21T13:39:28.442Z,1.38
2022-11-21T13:42:26.832Z,2.83
2022-11-21T13:44:54.920Z,2.50
2022-11-21T13:48:10.748Z,2.53
2022-11-21T13:50:59.113Z,1.50
2022-11-21T13:53:43.118Z,1.30
2022-11-21T13:56:26.321Z,1.17
2022-11-21T13:59:09.656Z,1.65
2022-11-21T14:01:58.191Z,1.95
2022-11-21T14:04:53.260Z,2.00
2022-11-21T14:07:27.185Z,2.15
2022-11-21T14:09:57.935Z,1.92
2022-11-21T14:12:34.380Z,2.35
2022-11-21T14:15:25.417Z,2.50
2022-11-21T14:17:56.945Z,2.17
2022-11-21T14:20:26.719Z,3.00
2022-11-21T14:22:58.445Z,2.75
2022-11-21T14:25:34.398Z,3.78
2022-11-21T14:28:05.384Z,3.60
2022-11-21T14:30:37.739Z,2.00
2022-11-21T14:33:29.612Z,2.47
2022-11-21T14:36:01.342Z,2.70
2022-11-21T14:38:31.205Z,3.90
2022-11-21T14:41:31.847Z,2.30
2022-11-21T14:44:18.268Z,3.97
2022-11-21T14:46:47.949Z,2.13
2022-11-21T14:49:29.168Z,3.10
2022-11-21T14:52:05.150Z,2.17
2022-11-21T14:54:40.239Z,2.10
2022-11-21T14:57:09.117Z,2.65
2022-11-21T14:59:41.342Z,3.72
2022-11-21T15:02:14.133Z,3.65
2022-11-21T15:04:43.348Z,3.67
2022-11-21T15:07:19.740Z,3.03
2022-11-21T15:12:48.528Z,3.80
2022-11-21T15:15:27.202Z,7.68
2022-11-21T15:18:26.005Z,4.13
2022-11-21T15:20:49.070Z,3.72
2022-11-21T15:23:27.195Z,3.70
2022-11-21T15:26:00.632Z,3.20
2022-11-21T15:28:29.461Z,3.92
2022-11-21T15:31:17.405Z,4.45
2022-11-21T15:36:45.200Z,3.50
2022-11-21T15:39:17.147Z,3.35
2022-11-21T15:41:46.121Z,3.42
2022-11-21T15:44:24.145Z,2.72
2022-11-21T15:49:35.827Z,3.95
2022-11-21T15:52:07.724Z,3.75
2022-11-21T15:54:37.188Z,3.75
2022-11-21T15:57:05.010Z,3.85
2022-11-21T15:57:12.412Z,3.95
2022-11-21T15:59:32.861Z,3.40
2022-11-21T16:02:00.615Z,3.25
2022-11-21T16:04:28.312Z,3.90
2022-11-21T16:06:57.292Z,4.25
2022-11-21T16:09:25.171Z,3.22
2022-11-21T16:11:52.787Z,3.17
2022-11-21T16:14:20.710Z,3.78
2022-11-21T16:16:48.441Z,3.40
2022-11-21T16:19:16.597Z,3.33
2022-11-21T16:21:44.354Z,4.07
2022-11-21T16:24:13.445Z,4.10
2022-11-21T16:26:41.300Z,3.42
2022-11-21T16:29:11.967Z,5.35
2022-11-21T16:31:39.646Z,3.65
2022-11-21T16:34:07.331Z,3.58
2022-11-21T16:36:35.121Z,3.47
2022-11-21T16:39:08.675Z,3.50
2022-11-21T16:41:41.193Z,3.20
2022-11-21T16:44:13.550Z,4.97
2022-11-21T16:46:43.822Z,5.63
2022-11-21T16:49:11.512Z,3.42
2022-11-21T16:51:39.264Z,2.75
2022-11-21T16:54:09.201Z,2.58
2022-11-21T16:56:37.557Z,3.13
2022-11-21T16:59:06.688Z,2.50
2022-11-21T17:01:34.493Z,2.63
2022-11-21T17:04:02.309Z,3.28
2022-11-21T17:06:31.768Z,3.70
2022-11-21T17:09:00.633Z,3.38
2022-11-21T17:11:31.112Z,3.00
2022-11-21T17:14:02.082Z,5.32
2022-11-21T17:16:31.368Z,2.70
2022-11-21T17:19:01.028Z,3.00
2022-11-21T17:21:30.004Z,2.80
2022-11-21T17:23:58.024Z,3.25
2022-11-21T17:26:27.853Z,3.65
2022-11-21T17:28:56.737Z,4.30
2022-11-21T17:31:24.782Z,3.72
2022-11-21T17:33:54.761Z,3.72
2022-11-21T17:36:24.090Z,4.03
2022-11-21T17:38:53.012Z,2.65
2022-11-21T17:41:22.290Z,3.20
2022-11-21T17:43:50.029Z,2.90
2022-11-21T17:46:19.914Z,2.53
2022-11-21T17:48:54.601Z,2.90
2022-11-21T17:51:26.432Z,2.85
2022-11-21T17:53:54.453Z,2.50
2022-11-21T17:56:24.263Z,3.33
2022-11-21T17:58:52.906Z,3.60
2022-11-21T18:01:21.939Z,3.72
2022-11-21T18:03:54.685Z,3.05
2022-11-21T18:06:24.101Z,4.53
2022-11-21T18:08:51.767Z,5.05
2022-11-21T18:11:21.096Z,4.85
2022-11-21T18:13:49.600Z,4.45
2022-11-21T18:16:19.005Z,5.07
2022-11-21T18:18:46.794Z,4.45
2022-11-21T18:21:16.360Z,4.80
2022-11-21T18:23:45.440Z,4.72
2022-11-21T18:26:14.998Z,5.20
2022-11-21T18:28:43.311Z,4.95
2022-11-21T18:31:13.573Z,4.80
2022-11-21T18:33:42.134Z,4.25
2022-11-21T18:36:12.158Z,5.35
2022-11-21T18:38:53.469Z,5.95
2022-11-21T18:41:27.808Z,8.88
2022-11-21T18:43:56.964Z,6.53
2022-11-21T18:46:26.048Z,9.05
2022-11-21T18:49:02.891Z,7.28
2022-11-21T18:51:34.081Z,7.57
2022-11-21T18:54:05.181Z,6.53
2022-11-21T18:56:34.719Z,5.82
2022-11-21T18:59:03.405Z,5.57
2022-11-21T19:01:31.955Z,5.22
2022-11-21T19:03:59.731Z,6.45
2022-11-21T19:06:28.543Z,5.57
2022-11-21T19:08:58.163Z,5.35
2022-11-21T19:11:27.723Z,5.22
2022-11-21T19:13:57.928Z,5.00
2022-11-21T19:16:27.489Z,4.88
2022-11-21T19:19:26.344Z,4.55
2022-11-21T19:21:43.954Z,5.30
2022-11-21T19:24:14.045Z,6.43
2022-11-21T19:26:42.386Z,7.70
2022-11-21T19:29:12.115Z,7.32
2022-11-21T19:31:45.368Z,6.35
2022-11-21T19:34:14.061Z,7.10
2022-11-21T19:36:42.282Z,6.15
2022-11-21T19:39:10.093Z,6.85
2022-11-21T19:41:38.041Z,5.43
2022-11-21T19:44:06.063Z,5.70
2022-11-21T19:46:37.364Z,6.03
2022-11-21T19:49:06.260Z,7.85
2022-11-21T19:51:36.650Z,6.15
2022-11-21T19:54:04.922Z,5.35
2022-11-21T19:56:33.189Z,5.80
2022-11-21T19:59:00.964Z,6.03
2022-11-21T20:01:30.219Z,6.28
2022-11-21T20:04:00.569Z,5.68
2022-11-21T20:06:30.853Z,6.75
2022-11-21T20:09:00.123Z,6.25
2022-11-21T20:11:29.657Z,6.97
2022-11-21T20:13:58.187Z,5.95
2022-11-21T20:16:28.178Z,7.22
2022-11-21T20:18:58.331Z,6.40
2022-11-21T20:21:27.919Z,7.05
2022-11-21T20:23:56.345Z,7.22
2022-11-21T20:26:24.965Z,7.82
2022-11-21T20:28:53.486Z,6.78
2022-11-21T20:31:22.949Z,6.47
2022-11-21T20:33:51.646Z,6.45
2022-11-21T20:36:20.812Z,7.63
2022-11-21T20:38:52.496Z,6.47
2022-11-21T20:41:20.749Z,6.47
2022-11-21T20:46:36.433Z,5.97
2022-11-21T20:49:04.110Z,5.65
2022-11-21T20:54:21.002Z,4.97
2022-11-21T20:56:48.781Z,5.10
2022-11-21T20:59:16.490Z,4.18
2022-11-21T21:01:46.894Z,5.10
2022-11-21T21:04:14.616Z,4.90
2022-11-21T21:06:42.529Z,4.10
2022-11-21T21:09:10.304Z,4.47
2022-11-21T21:11:54.644Z,4.43
2022-11-21T21:14:22.575Z,3.63
2022-11-21T21:16:50.629Z,3.53
2022-11-21T21:19:18.933Z,3.10
2022-11-21T21:21:46.644Z,3.75
2022-11-21T21:24:15.479Z,3.45
2022-11-21T21:26:46.199Z,2.85
2022-11-21T21:29:16.639Z,3.53
2022-11-21T21:31:50.551Z,3.35
2022-11-21T21:34:20.064Z,3.30
2022-11-21T21:36:48.064Z,3.08
2022-11-21T21:39:15.827Z,3.05
2022-11-21T21:41:46.654Z,3.83
2022-11-21T21:44:15.406Z,4.07
2022-11-21T21:46:43.170Z,2.90
2022-11-21T21:49:10.935Z,3.47
2022-11-21T21:51:39.914Z,3.05
2022-11-21T21:54:07.673Z,2.80
2022-11-21T21:56:37.248Z,3.05
2022-11-21T21:59:06.374Z,3.28
2022-11-21T22:01:34.124Z,3.30
2022-11-21T22:04:03.849Z,4.68
2022-11-21T22:06:34.462Z,3.85
2022-11-21T22:09:03.214Z,3.47
2022-11-21T22:11:33.027Z,6.07
2022-11-21T22:14:02.403Z,4.68
2022-11-21T22:16:32.101Z,4.43
2022-11-21T22:19:00.414Z,3.95
2022-11-21T22:21:32.248Z,3.75
2022-11-21T22:26:48.561Z,2.95
2022-11-21T22:29:16.238Z,2.80
2022-11-21T22:31:45.298Z,2.70
2022-11-21T22:34:13.991Z,2.95
2022-11-21T22:36:41.835Z,2.50
2022-11-21T22:39:09.864Z,3.38
2022-11-21T22:41:37.588Z,2.47
2022-11-21T22:44:05.504Z,3.10
2022-11-21T22:46:33.653Z,2.80
2022-11-21T22:49:03.550Z,2.30
2022-11-21T22:51:31.446Z,2.50
2022-11-21T22:53:59.193Z,3.30
2022-11-21T22:56:27.410Z,2.80
2022-11-21T22:58:56.057Z,2.97
2022-11-21T23:01:25.859Z,4.05
2022-11-21T23:03:55.418Z,2.70
2022-11-21T23:06:26.437Z,2.90
2022-11-21T23:08:55.284Z,3.65
2022-11-21T23:11:26.050Z,3.20
2022-11-21T23:13:54.443Z,2.58
2022-11-21T23:16:22.427Z,3.42
2022-11-21T23:18:53.049Z,3.28
2022-11-21T23:21:21.100Z,3.10
2022-11-21T23:23:50.480Z,2.88
2022-11-21T23:26:18.251Z,2.53
2022-11-21T23:28:45.981Z,2.70
2022-11-21T23:31:13.680Z,2.40
2022-11-21T23:33:41.303Z,2.92
2022-11-21T23:36:09.094Z,2.47
2022-11-21T23:38:36.767Z,2.90
2022-11-21T23:41:05.883Z,2.50
2022-11-21T23:43:33.591Z,3.15
2022-11-21T23:46:01.314Z,2.85
2022-11-21T23:48:29.371Z,2.92
2022-11-21T23:50:57.097Z,3.22
2022-11-21T23:53:24.809Z,3.63
2022-11-21T23:55:52.514Z,3.20
2022-11-21T23:58:21.611Z,3.35
